aviador You're here:

LFBA Decoded Metar

AGEN in FRANCE
Report Time2017-08-24 06:30:00
UTC Time2017-08-24 06:58:19
Flight Rules vfr VFR
WindCalm
Visibility9000 m
Phenomena:N/A
Clouds:N/A
Expected CloudBase > 400 ft AGL from Temp-Dew spread
CeilingNone
Temp20°C (ISA +5)
Dew Point19°C (94% RH)
QNH1016 hPa
Density Alt1,017 ft
Elevation197 ft
Report Wrong Elevation
Raw Report
METAR LFBA 240630Z AUTO 00000KT 9000 NSC 20/19 Q1016 TEMPO 4000 BR=

Extra information for LFBA:More info

Metar Taf Metar & Taf Last 4 Metars F.Rules Stats Wind Profile Meteogram Temp Stats Airport Information Weather charts Add Link Nearby VenuesMetar ALERT Operation Metar Decoded Social comments